sensor_id;sensor_type;location;lat;lon;timestamp;temperature;humidity
4564;DHT22;2294;51.818;8.484;2022-12-24T00:01:02;19.50;99.90
4564;DHT22;2294;51.818;8.484;2022-12-24T00:03:29;19.50;99.90
4564;DHT22;2294;51.818;8.484;2022-12-24T00:05:56;19.50;99.90
4564;DHT22;2294;51.818;8.484;2022-12-24T00:08:22;19.50;99.90
4564;DHT22;2294;51.818;8.484;2022-12-24T00:10:50;19.60;99.90
4564;DHT22;2294;51.818;8.484;2022-12-24T00:13:20;19.60;99.90
4564;DHT22;2294;51.818;8.484;2022-12-24T00:15:46;19.60;99.90
4564;DHT22;2294;51.818;8.484;2022-12-24T00:18:13;19.60;99.90
4564;DHT22;2294;51.818;8.484;2022-12-24T00:20:40;19.60;99.90
4564;DHT22;2294;51.818;8.484;2022-12-24T00:23:07;19.60;99.90
4564;DHT22;2294;51.818;8.484;2022-12-24T00:25:34;19.60;99.90
4564;DHT22;2294;51.818;8.484;2022-12-24T00:28:01;19.50;99.90
4564;DHT22;2294;51.818;8.484;2022-12-24T00:30:29;19.50;99.90
4564;DHT22;2294;51.818;8.484;2022-12-24T00:32:56;19.50;99.90
4564;DHT22;2294;51.818;8.484;2022-12-24T00:35:23;19.50;99.90
4564;DHT22;2294;51.818;8.484;2022-12-24T00:37:50;19.50;99.90
4564;DHT22;2294;51.818;8.484;2022-12-24T00:40:17;19.40;99.90
4564;DHT22;2294;51.818;8.484;2022-12-24T00:42:44;19.40;99.90
4564;DHT22;2294;51.818;8.484;2022-12-24T00:45:11;19.40;99.90
4564;DHT22;2294;51.818;8.484;2022-12-24T00:47:40;19.30;99.90
4564;DHT22;2294;51.818;8.484;2022-12-24T00:50:08;19.30;99.90
4564;DHT22;2294;51.818;8.484;2022-12-24T00:52:35;19.30;99.90
4564;DHT22;2294;51.818;8.484;2022-12-24T00:55:02;19.20;99.90
4564;DHT22;2294;51.818;8.484;2022-12-24T00:57:29;19.10;99.90
4564;DHT22;2294;51.818;8.484;2022-12-24T00:59:56;19.10;99.90
4564;DHT22;2294;51.818;8.484;2022-12-24T01:02:23;19.00;99.90
4564;DHT22;2294;51.818;8.484;2022-12-24T01:04:51;19.00;99.90
4564;DHT22;2294;51.818;8.484;2022-12-24T01:07:37;18.90;99.90
4564;DHT22;2294;51.818;8.484;2022-12-24T01:10:05;18.90;99.90
4564;DHT22;2294;51.818;8.484;2022-12-24T01:12:34;18.90;99.90
4564;DHT22;2294;51.818;8.484;2022-12-24T01:15:01;18.90;99.90
4564;DHT22;2294;51.818;8.484;2022-12-24T01:17:30;18.80;99.90
4564;DHT22;2294;51.818;8.484;2022-12-24T01:19:58;18.70;99.90
4564;DHT22;2294;51.818;8.484;2022-12-24T01:22:25;18.70;99.90
4564;DHT22;2294;51.818;8.484;2022-12-24T01:24:52;18.60;99.90
4564;DHT22;2294;51.818;8.484;2022-12-24T01:27:19;18.60;99.90
4564;DHT22;2294;51.818;8.484;2022-12-24T01:29:46;18.60;99.90
4564;DHT22;2294;51.818;8.484;2022-12-24T01:32:13;18.60;99.90
4564;DHT22;2294;51.818;8.484;2022-12-24T01:34:40;18.50;99.90
4564;DHT22;2294;51.818;8.484;2022-12-24T01:37:08;18.50;99.90
4564;DHT22;2294;51.818;8.484;2022-12-24T01:39:35;18.50;99.90
4564;DHT22;2294;51.818;8.484;2022-12-24T01:42:14;18.30;99.90
4564;DHT22;2294;51.818;8.484;2022-12-24T01:45:36;18.20;99.90
4564;DHT22;2294;51.818;8.484;2022-12-24T01:48:13;18.00;99.90
4564;DHT22;2294;51.818;8.484;2022-12-24T01:50:41;17.90;99.90
4564;DHT22;2294;51.818;8.484;2022-12-24T01:53:11;18.30;99.90
4564;DHT22;2294;51.818;8.484;2022-12-24T01:55:39;17.70;99.90
4564;DHT22;2294;51.818;8.484;2022-12-24T01:58:07;17.70;99.90
4564;DHT22;2294;51.818;8.484;2022-12-24T02:00:35;17.60;99.90
4564;DHT22;2294;51.818;8.484;2022-12-24T02:03:02;17.60;99.90
4564;DHT22;2294;51.818;8.484;2022-12-24T02:05:31;17.50;99.90
4564;DHT22;2294;51.818;8.484;2022-12-24T02:08:01;17.60;99.90
4564;DHT22;2294;51.818;8.484;2022-12-24T02:10:30;17.40;99.90
4564;DHT22;2294;51.818;8.484;2022-12-24T02:12:58;17.40;99.90
4564;DHT22;2294;51.818;8.484;2022-12-24T02:15:28;17.30;99.90
4564;DHT22;2294;51.818;8.484;2022-12-24T02:18:04;17.20;99.90
4564;DHT22;2294;51.818;8.484;2022-12-24T02:20:57;17.20;99.90
4564;DHT22;2294;51.818;8.484;2022-12-24T02:23:48;17.10;99.90
4564;DHT22;2294;51.818;8.484;2022-12-24T02:26:32;17.00;99.90
4564;DHT22;2294;51.818;8.484;2022-12-24T02:29:22;17.00;99.90
4564;DHT22;2294;51.818;8.484;2022-12-24T02:31:59;16.90;99.90
4564;DHT22;2294;51.818;8.484;2022-12-24T02:34:30;16.90;99.90
4564;DHT22;2294;51.818;8.484;2022-12-24T02:37:03;16.80;99.90
4564;DHT22;2294;51.818;8.484;2022-12-24T02:39:36;16.70;99.90
4564;DHT22;2294;51.818;8.484;2022-12-24T02:42:05;16.70;99.90
4564;DHT22;2294;51.818;8.484;2022-12-24T02:44:38;16.50;99.90
4564;DHT22;2294;51.818;8.484;2022-12-24T02:47:09;16.50;99.90
4564;DHT22;2294;51.818;8.484;2022-12-24T02:49:37;16.40;99.90
4564;DHT22;2294;51.818;8.484;2022-12-24T02:52:04;16.30;99.90
4564;DHT22;2294;51.818;8.484;2022-12-24T02:54:31;16.10;99.90
4564;DHT22;2294;51.818;8.484;2022-12-24T02:57:07;16.00;99.90
4564;DHT22;2294;51.818;8.484;2022-12-24T02:59:55;15.90;99.90
4564;DHT22;2294;51.818;8.484;2022-12-24T03:02:34;15.80;99.90
4564;DHT22;2294;51.818;8.484;2022-12-24T03:05:12;15.70;99.90
4564;DHT22;2294;51.818;8.484;2022-12-24T03:07:49;15.60;99.90
4564;DHT22;2294;51.818;8.484;2022-12-24T03:10:22;15.50;99.90
4564;DHT22;2294;51.818;8.484;2022-12-24T03:12:55;15.50;99.90
4564;DHT22;2294;51.818;8.484;2022-12-24T03:15:25;15.40;99.90
4564;DHT22;2294;51.818;8.484;2022-12-24T03:17:57;15.30;99.90
4564;DHT22;2294;51.818;8.484;2022-12-24T03:20:32;15.30;99.90
4564;DHT22;2294;51.818;8.484;2022-12-24T03:23:00;15.20;99.90
4564;DHT22;2294;51.818;8.484;2022-12-24T03:25:28;15.20;99.90
4564;DHT22;2294;51.818;8.484;2022-12-24T03:27:55;15.10;99.90
4564;DHT22;2294;51.818;8.484;2022-12-24T03:30:23;15.10;99.90
4564;DHT22;2294;51.818;8.484;2022-12-24T03:32:50;15.20;99.90
4564;DHT22;2294;51.818;8.484;2022-12-24T03:35:18;15.10;99.90
4564;DHT22;2294;51.818;8.484;2022-12-24T03:37:45;15.00;99.90
4564;DHT22;2294;51.818;8.484;2022-12-24T03:40:12;14.90;99.90
4564;DHT22;2294;51.818;8.484;2022-12-24T03:42:39;15.00;99.90
4564;DHT22;2294;51.818;8.484;2022-12-24T03:45:06;15.00;99.90
4564;DHT22;2294;51.818;8.484;2022-12-24T03:47:34;15.00;99.90
4564;DHT22;2294;51.818;8.484;2022-12-24T03:50:00;15.00;99.90
4564;DHT22;2294;51.818;8.484;2022-12-24T03:52:29;15.00;99.90
4564;DHT22;2294;51.818;8.484;2022-12-24T03:54:55;15.10;99.90
4564;DHT22;2294;51.818;8.484;2022-12-24T03:57:22;15.00;99.90
4564;DHT22;2294;51.818;8.484;2022-12-24T03:59:50;15.00;99.90
4564;DHT22;2294;51.818;8.484;2022-12-24T04:02:17;14.90;99.90
4564;DHT22;2294;51.818;8.484;2022-12-24T04:04:44;14.90;99.90
4564;DHT22;2294;51.818;8.484;2022-12-24T04:07:10;14.90;99.90
4564;DHT22;2294;51.818;8.484;2022-12-24T04:09:39;14.90;99.90
4564;DHT22;2294;51.818;8.484;2022-12-24T04:12:06;14.90;99.90
4564;DHT22;2294;51.818;8.484;2022-12-24T04:14:33;15.00;99.90
4564;DHT22;2294;51.818;8.484;2022-12-24T04:17:00;15.00;99.90
4564;DHT22;2294;51.818;8.484;2022-12-24T04:19:27;14.90;99.90
4564;DHT22;2294;51.818;8.484;2022-12-24T04:21:53;14.90;99.90
4564;DHT22;2294;51.818;8.484;2022-12-24T04:24:20;14.90;99.90
4564;DHT22;2294;51.818;8.484;2022-12-24T04:26:49;14.80;99.90
4564;DHT22;2294;51.818;8.484;2022-12-24T04:29:15;14.80;99.90
4564;DHT22;2294;51.818;8.484;2022-12-24T04:31:42;14.80;99.90
4564;DHT22;2294;51.818;8.484;2022-12-24T04:34:09;14.90;99.90
4564;DHT22;2294;51.818;8.484;2022-12-24T04:36:36;14.90;99.90
4564;DHT22;2294;51.818;8.484;2022-12-24T04:39:03;14.90;99.90
4564;DHT22;2294;51.818;8.484;2022-12-24T04:41:31;14.90;99.90
4564;DHT22;2294;51.818;8.484;2022-12-24T04:43:59;14.90;99.90
4564;DHT22;2294;51.818;8.484;2022-12-24T04:46:27;14.80;99.90
4564;DHT22;2294;51.818;8.484;2022-12-24T04:48:56;14.80;99.90
4564;DHT22;2294;51.818;8.484;2022-12-24T04:51:25;14.80;99.90
4564;DHT22;2294;51.818;8.484;2022-12-24T04:53:52;14.80;99.90
4564;DHT22;2294;51.818;8.484;2022-12-24T04:56:22;14.70;99.90
4564;DHT22;2294;51.818;8.484;2022-12-24T04:58:50;14.70;99.90
4564;DHT22;2294;51.818;8.484;2022-12-24T05:01:21;14.70;99.90
4564;DHT22;2294;51.818;8.484;2022-12-24T05:03:48;14.60;99.90
4564;DHT22;2294;51.818;8.484;2022-12-24T05:06:18;14.60;99.90
4564;DHT22;2294;51.818;8.484;2022-12-24T05:08:45;14.50;99.90
4564;DHT22;2294;51.818;8.484;2022-12-24T05:11:12;14.50;99.90
4564;DHT22;2294;51.818;8.484;2022-12-24T05:13:40;14.40;99.90
4564;DHT22;2294;51.818;8.484;2022-12-24T05:16:08;14.40;99.90
4564;DHT22;2294;51.818;8.484;2022-12-24T05:18:37;14.20;99.90
4564;DHT22;2294;51.818;8.484;2022-12-24T05:21:07;14.20;99.90
4564;DHT22;2294;51.818;8.484;2022-12-24T05:23:34;14.10;99.90
4564;DHT22;2294;51.818;8.484;2022-12-24T05:26:23;14.10;99.90
4564;DHT22;2294;51.818;8.484;2022-12-24T05:28:54;14.10;99.90
4564;DHT22;2294;51.818;8.484;2022-12-24T05:31:22;14.10;99.90
4564;DHT22;2294;51.818;8.484;2022-12-24T05:33:50;14.00;99.90
4564;DHT22;2294;51.818;8.484;2022-12-24T05:36:19;14.10;99.90
4564;DHT22;2294;51.818;8.484;2022-12-24T05:38:46;14.00;99.90
4564;DHT22;2294;51.818;8.484;2022-12-24T05:41:13;14.00;99.90
4564;DHT22;2294;51.818;8.484;2022-12-24T05:43:40;14.10;99.90
4564;DHT22;2294;51.818;8.484;2022-12-24T05:46:09;14.20;99.90
4564;DHT22;2294;51.818;8.484;2022-12-24T05:48:37;14.30;99.90
4564;DHT22;2294;51.818;8.484;2022-12-24T05:51:07;14.40;99.90
4564;DHT22;2294;51.818;8.484;2022-12-24T05:53:34;14.50;99.90
4564;DHT22;2294;51.818;8.484;2022-12-24T05:56:03;14.60;99.90
4564;DHT22;2294;51.818;8.484;2022-12-24T05:58:30;14.70;99.90
4564;DHT22;2294;51.818;8.484;2022-12-24T06:00:57;14.70;99.90
4564;DHT22;2294;51.818;8.484;2022-12-24T06:03:24;14.70;99.90
4564;DHT22;2294;51.818;8.484;2022-12-24T06:05:57;14.70;99.90
4564;DHT22;2294;51.818;8.484;2022-12-24T06:08:26;14.80;99.90
4564;DHT22;2294;51.818;8.484;2022-12-24T06:10:54;14.70;99.90
4564;DHT22;2294;51.818;8.484;2022-12-24T06:13:22;14.70;99.90
4564;DHT22;2294;51.818;8.484;2022-12-24T06:15:49;14.70;99.90
4564;DHT22;2294;51.818;8.484;2022-12-24T06:18:16;14.70;99.90
4564;DHT22;2294;51.818;8.484;2022-12-24T06:20:43;14.80;99.90
4564;DHT22;2294;51.818;8.484;2022-12-24T06:23:10;14.80;99.90
4564;DHT22;2294;51.818;8.484;2022-12-24T06:25:38;14.90;99.90
4564;DHT22;2294;51.818;8.484;2022-12-24T06:28:05;14.90;99.90
4564;DHT22;2294;51.818;8.484;2022-12-24T06:30:32;15.00;99.90
4564;DHT22;2294;51.818;8.484;2022-12-24T06:32:59;15.10;99.90
4564;DHT22;2294;51.818;8.484;2022-12-24T06:35:26;15.10;99.90
4564;DHT22;2294;51.818;8.484;2022-12-24T06:37:53;15.10;99.90
4564;DHT22;2294;51.818;8.484;2022-12-24T06:40:19;15.10;99.90
4564;DHT22;2294;51.818;8.484;2022-12-24T06:42:48;15.10;99.90
4564;DHT22;2294;51.818;8.484;2022-12-24T06:45:15;15.10;99.90
4564;DHT22;2294;51.818;8.484;2022-12-24T06:47:42;15.20;99.90
4564;DHT22;2294;51.818;8.484;2022-12-24T06:50:09;15.20;99.90
4564;DHT22;2294;51.818;8.484;2022-12-24T06:52:36;15.30;99.90
4564;DHT22;2294;51.818;8.484;2022-12-24T06:55:03;15.30;99.90
4564;DHT22;2294;51.818;8.484;2022-12-24T06:57:30;15.30;99.90
4564;DHT22;2294;51.818;8.484;2022-12-24T07:00:00;15.40;99.90
4564;DHT22;2294;51.818;8.484;2022-12-24T07:02:27;15.40;99.90
4564;DHT22;2294;51.818;8.484;2022-12-24T07:04:54;15.40;99.90
4564;DHT22;2294;51.818;8.484;2022-12-24T07:07:21;15.50;99.90
4564;DHT22;2294;51.818;8.484;2022-12-24T07:09:47;15.50;99.90
4564;DHT22;2294;51.818;8.484;2022-12-24T07:12:14;15.60;99.90
4564;DHT22;2294;51.818;8.484;2022-12-24T07:14:41;15.60;99.90
4564;DHT22;2294;51.818;8.484;2022-12-24T07:17:09;15.60;99.90
4564;DHT22;2294;51.818;8.484;2022-12-24T07:19:36;15.60;99.90
4564;DHT22;2294;51.818;8.484;2022-12-24T07:22:03;15.70;99.90
4564;DHT22;2294;51.818;8.484;2022-12-24T07:24:30;15.70;99.90
4564;DHT22;2294;51.818;8.484;2022-12-24T07:26:57;15.80;99.90
4564;DHT22;2294;51.818;8.484;2022-12-24T07:29:24;15.80;99.90
4564;DHT22;2294;51.818;8.484;2022-12-24T07:31:51;15.90;99.90
4564;DHT22;2294;51.818;8.484;2022-12-24T07:34:19;15.90;99.90
4564;DHT22;2294;51.818;8.484;2022-12-24T07:36:46;16.00;99.90
4564;DHT22;2294;51.818;8.484;2022-12-24T07:39:13;16.10;99.90
4564;DHT22;2294;51.818;8.484;2022-12-24T07:41:40;16.10;99.90
4564;DHT22;2294;51.818;8.484;2022-12-24T07:44:10;16.10;99.90
4564;DHT22;2294;51.818;8.484;2022-12-24T07:46:37;16.20;99.90
4564;DHT22;2294;51.818;8.484;2022-12-24T07:49:04;16.20;99.90
4564;DHT22;2294;51.818;8.484;2022-12-24T07:51:32;16.20;99.90
4564;DHT22;2294;51.818;8.484;2022-12-24T07:53:59;16.20;99.90
4564;DHT22;2294;51.818;8.484;2022-12-24T07:56:26;16.20;99.90
4564;DHT22;2294;51.818;8.484;2022-12-24T07:58:53;16.30;99.90
4564;DHT22;2294;51.818;8.484;2022-12-24T08:01:20;16.50;99.90
4564;DHT22;2294;51.818;8.484;2022-12-24T08:03:47;16.40;99.90
4564;DHT22;2294;51.818;8.484;2022-12-24T08:06:16;16.40;99.90
4564;DHT22;2294;51.818;8.484;2022-12-24T08:08:44;16.60;99.90
4564;DHT22;2294;51.818;8.484;2022-12-24T08:11:11;16.60;99.90
4564;DHT22;2294;51.818;8.484;2022-12-24T08:13:38;16.70;99.90
4564;DHT22;2294;51.818;8.484;2022-12-24T08:16:05;16.80;99.90
4564;DHT22;2294;51.818;8.484;2022-12-24T08:18:32;16.80;99.90
4564;DHT22;2294;51.818;8.484;2022-12-24T08:20:59;16.70;99.90
4564;DHT22;2294;51.818;8.484;2022-12-24T08:23:26;16.80;99.90
4564;DHT22;2294;51.818;8.484;2022-12-24T08:25:56;16.80;99.90
4564;DHT22;2294;51.818;8.484;2022-12-24T08:28:23;16.80;99.90
4564;DHT22;2294;51.818;8.484;2022-12-24T08:30:50;17.20;99.90
4564;DHT22;2294;51.818;8.484;2022-12-24T08:33:17;16.80;99.90
4564;DHT22;2294;51.818;8.484;2022-12-24T08:35:47;16.80;99.90
4564;DHT22;2294;51.818;8.484;2022-12-24T08:38:14;16.70;99.90
4564;DHT22;2294;51.818;8.484;2022-12-24T08:40:41;16.70;99.90
4564;DHT22;2294;51.818;8.484;2022-12-24T08:43:09;16.70;99.90
4564;DHT22;2294;51.818;8.484;2022-12-24T08:45:37;16.70;99.90
4564;DHT22;2294;51.818;8.484;2022-12-24T08:48:05;16.70;99.90
4564;DHT22;2294;51.818;8.484;2022-12-24T08:50:32;16.70;99.90
4564;DHT22;2294;51.818;8.484;2022-12-24T08:52:59;16.70;99.90
4564;DHT22;2294;51.818;8.484;2022-12-24T08:55:26;16.70;99.90
4564;DHT22;2294;51.818;8.484;2022-12-24T08:57:52;16.60;99.90
4564;DHT22;2294;51.818;8.484;2022-12-24T09:00:21;16.60;99.90
4564;DHT22;2294;51.818;8.484;2022-12-24T09:02:48;16.60;99.90
4564;DHT22;2294;51.818;8.484;2022-12-24T09:05:15;16.60;99.90
4564;DHT22;2294;51.818;8.484;2022-12-24T09:07:43;16.60;99.90
4564;DHT22;2294;51.818;8.484;2022-12-24T09:10:10;16.60;99.90
4564;DHT22;2294;51.818;8.484;2022-12-24T09:12:37;16.50;99.90
4564;DHT22;2294;51.818;8.484;2022-12-24T09:15:05;16.50;99.90
4564;DHT22;2294;51.818;8.484;2022-12-24T09:17:35;16.50;99.90
4564;DHT22;2294;51.818;8.484;2022-12-24T09:20:03;16.40;99.90
4564;DHT22;2294;51.818;8.484;2022-12-24T09:22:33;16.40;99.90
4564;DHT22;2294;51.818;8.484;2022-12-24T09:24:59;16.40;99.90
4564;DHT22;2294;51.818;8.484;2022-12-24T09:27:26;16.40;99.90
4564;DHT22;2294;51.818;8.484;2022-12-24T09:29:53;16.20;99.90
4564;DHT22;2294;51.818;8.484;2022-12-24T09:32:20;16.40;99.90
4564;DHT22;2294;51.818;8.484;2022-12-24T09:34:48;16.40;99.90
4564;DHT22;2294;51.818;8.484;2022-12-24T09:37:15;16.40;99.90
4564;DHT22;2294;51.818;8.484;2022-12-24T09:39:42;16.50;99.90
4564;DHT22;2294;51.818;8.484;2022-12-24T09:42:18;16.40;99.90
4564;DHT22;2294;51.818;8.484;2022-12-24T09:44:55;16.40;99.90
4564;DHT22;2294;51.818;8.484;2022-12-24T09:47:28;16.30;99.90
4564;DHT22;2294;51.818;8.484;2022-12-24T09:49:58;16.30;99.90
4564;DHT22;2294;51.818;8.484;2022-12-24T09:52:31;16.20;99.90
4564;DHT22;2294;51.818;8.484;2022-12-24T09:55:04;16.20;99.90
4564;DHT22;2294;51.818;8.484;2022-12-24T09:57:35;16.10;99.90
4564;DHT22;2294;51.818;8.484;2022-12-24T10:00:04;16.10;99.90
4564;DHT22;2294;51.818;8.484;2022-12-24T10:02:31;16.00;99.90
4564;DHT22;2294;51.818;8.484;2022-12-24T10:04:59;16.00;99.90
4564;DHT22;2294;51.818;8.484;2022-12-24T10:07:35;16.00;99.90
4564;DHT22;2294;51.818;8.484;2022-12-24T10:10:15;16.10;99.90
4564;DHT22;2294;51.818;8.484;2022-12-24T10:12:50;16.00;99.90
4564;DHT22;2294;51.818;8.484;2022-12-24T10:15:25;15.90;99.90
4564;DHT22;2294;51.818;8.484;2022-12-24T10:18:08;15.80;99.90
4564;DHT22;2294;51.818;8.484;2022-12-24T10:20:45;15.70;99.90
4564;DHT22;2294;51.818;8.484;2022-12-24T10:23:18;15.60;99.90
4564;DHT22;2294;51.818;8.484;2022-12-24T10:25:51;15.60;99.90
4564;DHT22;2294;51.818;8.484;2022-12-24T10:28:26;15.60;99.90
4564;DHT22;2294;51.818;8.484;2022-12-24T10:31:02;15.70;99.90
4564;DHT22;2294;51.818;8.484;2022-12-24T10:33:33;15.70;99.90
4564;DHT22;2294;51.818;8.484;2022-12-24T10:36:05;15.80;99.90
4564;DHT22;2294;51.818;8.484;2022-12-24T10:38:34;15.90;99.90
4564;DHT22;2294;51.818;8.484;2022-12-24T10:41:01;15.80;99.90
4564;DHT22;2294;51.818;8.484;2022-12-24T10:43:29;15.70;99.90
4564;DHT22;2294;51.818;8.484;2022-12-24T10:45:58;15.60;99.90
4564;DHT22;2294;51.818;8.484;2022-12-24T10:48:28;15.50;99.90
4564;DHT22;2294;51.818;8.484;2022-12-24T10:51:01;15.50;99.90
4564;DHT22;2294;51.818;8.484;2022-12-24T10:53:37;15.60;99.90
4564;DHT22;2294;51.818;8.484;2022-12-24T10:56:08;15.50;99.90
4564;DHT22;2294;51.818;8.484;2022-12-24T10:58:35;15.40;99.90
4564;DHT22;2294;51.818;8.484;2022-12-24T11:01:03;15.40;99.90
4564;DHT22;2294;51.818;8.484;2022-12-24T11:03:32;15.40;99.90
4564;DHT22;2294;51.818;8.484;2022-12-24T11:06:06;15.40;99.90
4564;DHT22;2294;51.818;8.484;2022-12-24T11:08:36;15.40;99.90
4564;DHT22;2294;51.818;8.484;2022-12-24T11:11:05;15.40;99.90
4564;DHT22;2294;51.818;8.484;2022-12-24T11:13:34;15.50;99.90
4564;DHT22;2294;51.818;8.484;2022-12-24T11:16:05;15.60;99.90
4564;DHT22;2294;51.818;8.484;2022-12-24T11:18:34;15.60;99.90
4564;DHT22;2294;51.818;8.484;2022-12-24T11:21:03;15.60;99.90
4564;DHT22;2294;51.818;8.484;2022-12-24T11:23:30;15.60;99.90
4564;DHT22;2294;51.818;8.484;2022-12-24T11:25:58;15.70;99.90
4564;DHT22;2294;51.818;8.484;2022-12-24T11:28:28;15.80;99.90
4564;DHT22;2294;51.818;8.484;2022-12-24T11:30:59;16.00;99.90
4564;DHT22;2294;51.818;8.484;2022-12-24T11:33:26;16.00;99.90
4564;DHT22;2294;51.818;8.484;2022-12-24T11:35:59;15.60;99.90
4564;DHT22;2294;51.818;8.484;2022-12-24T11:38:27;15.60;99.90
4564;DHT22;2294;51.818;8.484;2022-12-24T11:41:02;15.60;99.90
4564;DHT22;2294;51.818;8.484;2022-12-24T11:43:36;15.80;99.90
4564;DHT22;2294;51.818;8.484;2022-12-24T11:46:21;15.80;99.90
4564;DHT22;2294;51.818;8.484;2022-12-24T11:49:20;15.90;99.90
4564;DHT22;2294;51.818;8.484;2022-12-24T11:52:22;15.90;99.90
4564;DHT22;2294;51.818;8.484;2022-12-24T11:57:49;15.50;99.90
4564;DHT22;2294;51.818;8.484;2022-12-24T12:00:18;15.30;99.90
4564;DHT22;2294;51.818;8.484;2022-12-24T12:02:47;15.30;99.90
4564;DHT22;2294;51.818;8.484;2022-12-24T12:05:17;15.30;99.90
4564;DHT22;2294;51.818;8.484;2022-12-24T12:07:46;15.30;99.90
4564;DHT22;2294;51.818;8.484;2022-12-24T12:10:17;15.60;99.90
4564;DHT22;2294;51.818;8.484;2022-12-24T12:12:51;15.50;99.90
4564;DHT22;2294;51.818;8.484;2022-12-24T12:15:24;15.40;99.90
4564;DHT22;2294;51.818;8.484;2022-12-24T12:17:55;15.40;99.90
4564;DHT22;2294;51.818;8.484;2022-12-24T12:20:24;15.50;99.90
4564;DHT22;2294;51.818;8.484;2022-12-24T12:22:56;15.40;99.90
4564;DHT22;2294;51.818;8.484;2022-12-24T12:25:29;15.30;99.90
4564;DHT22;2294;51.818;8.484;2022-12-24T12:28:01;15.40;99.90
4564;DHT22;2294;51.818;8.484;2022-12-24T12:30:30;15.40;99.90
4564;DHT22;2294;51.818;8.484;2022-12-24T12:33:00;15.30;99.90
4564;DHT22;2294;51.818;8.484;2022-12-24T12:35:31;15.10;99.90
4564;DHT22;2294;51.818;8.484;2022-12-24T12:38:00;15.10;99.90
4564;DHT22;2294;51.818;8.484;2022-12-24T12:40:48;15.10;99.90
4564;DHT22;2294;51.818;8.484;2022-12-24T12:43:32;15.10;99.90
4564;DHT22;2294;51.818;8.484;2022-12-24T12:46:05;15.10;99.90
4564;DHT22;2294;51.818;8.484;2022-12-24T12:48:49;15.40;99.90
4564;DHT22;2294;51.818;8.484;2022-12-24T12:51:25;15.50;99.90
4564;DHT22;2294;51.818;8.484;2022-12-24T13:00:01;15.10;99.90
4564;DHT22;2294;51.818;8.484;2022-12-24T13:05:51;15.10;99.90
4564;DHT22;2294;51.818;8.484;2022-12-24T13:08:47;14.90;99.90
4564;DHT22;2294;51.818;8.484;2022-12-24T13:11:34;14.80;99.90
4564;DHT22;2294;51.818;8.484;2022-12-24T13:14:30;14.90;99.90
4564;DHT22;2294;51.818;8.484;2022-12-24T13:17:23;15.00;99.90
4564;DHT22;2294;51.818;8.484;2022-12-24T13:20:10;15.20;99.90
4564;DHT22;2294;51.818;8.484;2022-12-24T13:22:47;15.10;99.90
4564;DHT22;2294;51.818;8.484;2022-12-24T13:25:20;14.90;99.90
4564;DHT22;2294;51.818;8.484;2022-12-24T13:27:48;14.90;99.90
4564;DHT22;2294;51.818;8.484;2022-12-24T13:30:36;14.80;99.90
4564;DHT22;2294;51.818;8.484;2022-12-24T13:33:08;14.70;99.90
4564;DHT22;2294;51.818;8.484;2022-12-24T13:35:38;14.80;99.90
4564;DHT22;2294;51.818;8.484;2022-12-24T13:38:34;14.80;99.90
4564;DHT22;2294;51.818;8.484;2022-12-24T13:44:32;14.80;99.90
4564;DHT22;2294;51.818;8.484;2022-12-24T13:49:49;14.90;99.90
4564;DHT22;2294;51.818;8.484;2022-12-24T13:52:22;15.00;99.90
4564;DHT22;2294;51.818;8.484;2022-12-24T13:55:04;15.00;99.90
4564;DHT22;2294;51.818;8.484;2022-12-24T13:57:36;15.10;99.90
4564;DHT22;2294;51.818;8.484;2022-12-24T14:00:07;15.30;99.90
4564;DHT22;2294;51.818;8.484;2022-12-24T14:02:51;15.50;99.90
4564;DHT22;2294;51.818;8.484;2022-12-24T14:05:29;15.50;99.90
4564;DHT22;2294;51.818;8.484;2022-12-24T14:07:59;15.50;99.90
4564;DHT22;2294;51.818;8.484;2022-12-24T14:10:29;15.30;99.90
4564;DHT22;2294;51.818;8.484;2022-12-24T14:12:56;15.30;99.90
4564;DHT22;2294;51.818;8.484;2022-12-24T14:15:58;15.10;99.90
4564;DHT22;2294;51.818;8.484;2022-12-24T14:18:26;14.90;99.90
4564;DHT22;2294;51.818;8.484;2022-12-24T14:20:58;14.60;99.90
4564;DHT22;2294;51.818;8.484;2022-12-24T14:26:16;14.30;99.90
4564;DHT22;2294;51.818;8.484;2022-12-24T14:28:46;14.20;99.90
4564;DHT22;2294;51.818;8.484;2022-12-24T14:31:17;14.20;99.90
4564;DHT22;2294;51.818;8.484;2022-12-24T14:33:45;14.10;99.90
4564;DHT22;2294;51.818;8.484;2022-12-24T14:36:17;14.10;99.90
4564;DHT22;2294;51.818;8.484;2022-12-24T14:38:45;14.10;99.90
4564;DHT22;2294;51.818;8.484;2022-12-24T14:41:26;14.10;99.90
4564;DHT22;2294;51.818;8.484;2022-12-24T14:44:03;14.10;99.90
4564;DHT22;2294;51.818;8.484;2022-12-24T14:46:37;14.10;99.90
4564;DHT22;2294;51.818;8.484;2022-12-24T14:49:15;14.00;99.90
4564;DHT22;2294;51.818;8.484;2022-12-24T14:51:55;14.00;99.90
4564;DHT22;2294;51.818;8.484;2022-12-24T14:54:34;14.00;99.90
4564;DHT22;2294;51.818;8.484;2022-12-24T14:57:17;13.90;99.90
4564;DHT22;2294;51.818;8.484;2022-12-24T14:59:47;13.90;99.90
4564;DHT22;2294;51.818;8.484;2022-12-24T15:02:30;13.80;99.90
4564;DHT22;2294;51.818;8.484;2022-12-24T15:05:12;13.70;99.90
4564;DHT22;2294;51.818;8.484;2022-12-24T15:07:44;13.60;99.90
4564;DHT22;2294;51.818;8.484;2022-12-24T15:10:24;13.50;99.90
4564;DHT22;2294;51.818;8.484;2022-12-24T15:12:53;13.30;99.90
4564;DHT22;2294;51.818;8.484;2022-12-24T15:15:21;13.20;99.90
4564;DHT22;2294;51.818;8.484;2022-12-24T15:17:49;13.00;99.90
4564;DHT22;2294;51.818;8.484;2022-12-24T15:20:19;13.30;99.90
4564;DHT22;2294;51.818;8.484;2022-12-24T15:22:50;13.40;99.90
4564;DHT22;2294;51.818;8.484;2022-12-24T15:25:19;13.40;99.90
4564;DHT22;2294;51.818;8.484;2022-12-24T15:27:47;13.40;99.90
4564;DHT22;2294;51.818;8.484;2022-12-24T15:30:16;13.40;99.90
4564;DHT22;2294;51.818;8.484;2022-12-24T15:32:43;13.40;99.90
4564;DHT22;2294;51.818;8.484;2022-12-24T15:35:28;13.20;99.90
4564;DHT22;2294;51.818;8.484;2022-12-24T15:37:58;13.20;99.90
4564;DHT22;2294;51.818;8.484;2022-12-24T15:40:25;13.10;99.90
4564;DHT22;2294;51.818;8.484;2022-12-24T15:42:53;13.00;99.90
4564;DHT22;2294;51.818;8.484;2022-12-24T15:45:21;13.00;99.90
4564;DHT22;2294;51.818;8.484;2022-12-24T15:47:51;12.80;99.90
4564;DHT22;2294;51.818;8.484;2022-12-24T15:50:25;12.90;99.90
4564;DHT22;2294;51.818;8.484;2022-12-24T15:52:55;12.90;99.90
4564;DHT22;2294;51.818;8.484;2022-12-24T15:55:33;12.90;99.90
4564;DHT22;2294;51.818;8.484;2022-12-24T15:58:01;12.80;99.90
4564;DHT22;2294;51.818;8.484;2022-12-24T16:00:38;12.70;99.90
4564;DHT22;2294;51.818;8.484;2022-12-24T16:03:10;12.60;99.90
4564;DHT22;2294;51.818;8.484;2022-12-24T16:05:38;12.20;99.90
4564;DHT22;2294;51.818;8.484;2022-12-24T16:08:22;12.10;99.90
4564;DHT22;2294;51.818;8.484;2022-12-24T16:10:53;12.10;99.90
4564;DHT22;2294;51.818;8.484;2022-12-24T16:13:22;11.80;99.90
4564;DHT22;2294;51.818;8.484;2022-12-24T16:15:53;11.50;99.90
4564;DHT22;2294;51.818;8.484;2022-12-24T16:18:25;11.40;99.90
4564;DHT22;2294;51.818;8.484;2022-12-24T16:20:54;11.50;99.90
4564;DHT22;2294;51.818;8.484;2022-12-24T16:23:23;11.50;99.90
4564;DHT22;2294;51.818;8.484;2022-12-24T16:25:52;11.50;99.90
4564;DHT22;2294;51.818;8.484;2022-12-24T16:28:19;11.50;99.90
4564;DHT22;2294;51.818;8.484;2022-12-24T16:30:47;11.40;99.90
4564;DHT22;2294;51.818;8.484;2022-12-24T16:33:15;11.30;99.90
4564;DHT22;2294;51.818;8.484;2022-12-24T16:35:44;11.30;99.90
4564;DHT22;2294;51.818;8.484;2022-12-24T16:38:11;11.40;99.90
4564;DHT22;2294;51.818;8.484;2022-12-24T16:40:38;11.30;99.90
4564;DHT22;2294;51.818;8.484;2022-12-24T16:43:06;11.20;99.90
4564;DHT22;2294;51.818;8.484;2022-12-24T16:45:51;11.20;99.90